createdAt,value
2019-02-18T00:01:13.066Z,74.60
2019-02-18T00:07:21.731Z,74.70
2019-02-18T00:10:22.859Z,74.80
2019-02-18T00:13:24.567Z,74.70
2019-02-18T00:16:27.318Z,74.90
2019-02-18T00:19:28.583Z,75.10
2019-02-18T00:22:30.545Z,75.60
2019-02-18T00:25:32.319Z,75.80
2019-02-18T00:28:33.754Z,76.00
2019-02-18T00:31:35.119Z,75.30
2019-02-18T00:37:43.110Z,75.00
2019-02-18T00:40:44.523Z,74.90
2019-02-18T00:43:45.968Z,74.80
2019-02-18T00:46:47.740Z,75.50
2019-02-18T00:49:48.819Z,76.50
2019-02-18T00:52:49.840Z,76.40
2019-02-18T00:55:51.139Z,76.20
2019-02-18T00:58:52.885Z,76.00
2019-02-18T01:01:54.315Z,76.50
2019-02-18T01:05:02.026Z,77.40
2019-02-18T01:08:04.031Z,78.20
2019-02-18T01:11:05.122Z,79.10
2019-02-18T01:14:06.440Z,78.80
2019-02-18T01:17:06.344Z,78.40
2019-02-18T01:23:41.335Z,79.50
2019-02-18T01:26:42.294Z,78.70
2019-02-18T01:29:43.201Z,79.00
2019-02-18T01:32:44.251Z,79.00
2019-02-18T01:35:51.511Z,79.40
2019-02-18T01:38:51.791Z,79.40
2019-02-18T01:41:52.807Z,79.30
2019-02-18T01:44:54.771Z,79.70
2019-02-18T01:47:55.705Z,80.40
2019-02-18T01:50:56.906Z,80.40
2019-02-18T01:53:58.843Z,80.50
2019-02-18T01:57:00.660Z,80.10
2019-02-18T02:00:01.557Z,80.80
2019-02-18T02:03:03.496Z,81.80
2019-02-18T02:06:10.421Z,81.90
2019-02-18T02:09:14.579Z,81.00
2019-02-18T02:12:16.064Z,81.30
2019-02-18T02:15:17.787Z,82.00
2019-02-18T02:18:19.199Z,81.20
2019-02-18T02:21:20.910Z,81.00
2019-02-18T02:24:22.674Z,81.30
2019-02-18T02:27:23.815Z,80.80
2019-02-18T02:30:25.612Z,81.80
2019-02-18T02:33:27.409Z,83.40
2019-02-18T02:36:35.075Z,84.20
2019-02-18T02:39:36.305Z,83.70
2019-02-18T02:42:37.559Z,83.90
2019-02-18T02:45:39.574Z,83.10
2019-02-18T02:48:41.007Z,82.70
2019-02-18T02:51:42.749Z,82.60
2019-02-18T02:54:44.554Z,82.30
2019-02-18T02:57:46.235Z,82.80
2019-02-18T03:00:47.354Z,82.50
2019-02-18T03:03:48.745Z,82.50
2019-02-18T03:09:56.801Z,82.70
2019-02-18T03:12:58.577Z,82.90
2019-02-18T03:15:59.862Z,83.60
2019-02-18T03:19:01.335Z,84.20
2019-02-18T03:22:02.326Z,84.90
2019-02-18T03:25:03.494Z,85.20
2019-02-18T03:28:04.500Z,84.60
2019-02-18T03:31:05.670Z,84.20
2019-02-18T03:34:07.455Z,84.00
2019-02-18T03:40:16.811Z,84.60
2019-02-18T03:43:17.915Z,84.40
2019-02-18T03:46:19.691Z,84.00
2019-02-18T03:49:20.771Z,84.40
2019-02-18T03:52:22.692Z,85.20
2019-02-18T03:55:24.122Z,86.00
2019-02-18T03:58:25.459Z,85.80
2019-02-18T04:01:27.410Z,85.50
2019-02-18T04:04:28.606Z,85.40
2019-02-18T04:07:36.467Z,84.90
2019-02-18T04:10:38.959Z,84.60
2019-02-18T04:13:40.375Z,84.40
2019-02-18T04:16:42.258Z,84.30
2019-02-18T04:19:43.143Z,84.20
2019-02-18T04:22:44.278Z,83.90
2019-02-18T04:25:45.433Z,83.90
2019-02-18T04:28:46.631Z,84.40
2019-02-18T04:31:48.315Z,85.30
2019-02-18T04:34:49.551Z,85.50
2019-02-18T04:40:57.564Z,84.60
2019-02-18T04:43:59.158Z,84.30
2019-02-18T04:47:00.625Z,83.90
2019-02-18T04:50:02.471Z,84.40
2019-02-18T04:53:04.127Z,84.80
2019-02-18T04:56:05.386Z,84.90
2019-02-18T04:59:06.911Z,84.80
2019-02-18T05:02:08.386Z,85.20
2019-02-18T05:05:09.751Z,85.20
2019-02-18T05:11:17.831Z,85.00
2019-02-18T05:14:19.479Z,85.00
2019-02-18T05:17:21.474Z,85.50
2019-02-18T05:20:22.739Z,86.10
2019-02-18T05:23:23.892Z,86.20
2019-02-18T05:26:30.638Z,86.70
2019-02-18T05:29:32.301Z,87.20
2019-02-18T05:32:34.025Z,87.60
2019-02-18T05:35:35.693Z,88.10
2019-02-18T05:41:44.610Z,88.50
2019-02-18T05:44:45.941Z,87.40
2019-02-18T05:47:46.847Z,86.70
2019-02-18T05:50:48.247Z,86.70
2019-02-18T05:53:49.338Z,86.50
2019-02-18T05:56:50.967Z,86.60
2019-02-18T05:59:52.028Z,86.70
2019-02-18T06:02:54.988Z,86.80
2019-02-18T06:05:56.592Z,87.60
2019-02-18T06:12:05.059Z,87.80
2019-02-18T06:15:06.505Z,87.30
2019-02-18T06:18:08.216Z,87.10
2019-02-18T06:21:09.826Z,87.20
2019-02-18T06:24:10.925Z,87.00
2019-02-18T06:27:12.051Z,87.20
2019-02-18T06:30:13.698Z,86.50
2019-02-18T06:33:18.199Z,86.00
2019-02-18T06:36:19.551Z,86.20
2019-02-18T06:42:28.621Z,86.30
2019-02-18T06:45:51.902Z,86.40
2019-02-18T06:52:11.298Z,86.50
2019-02-18T06:55:18.618Z,87.10
2019-02-18T07:01:47.886Z,87.20
2019-02-18T07:05:14.242Z,87.40
2019-02-18T07:08:21.519Z,87.60
2019-02-18T07:11:33.777Z,88.00
2019-02-18T07:14:35.338Z,87.80
2019-02-18T07:17:37.003Z,87.50
2019-02-18T07:20:38.878Z,87.50
2019-02-18T07:23:40.746Z,87.60
2019-02-18T07:26:41.959Z,87.40
2019-02-18T07:29:43.223Z,87.60
2019-02-18T07:32:44.314Z,87.60
2019-02-18T07:35:51.117Z,87.50
2019-02-18T07:38:52.835Z,87.20
2019-02-18T07:42:00.511Z,88.00
2019-02-18T07:45:01.918Z,88.30
2019-02-18T07:48:03.559Z,87.60
2019-02-18T07:51:04.649Z,87.70
2019-02-18T07:57:13.196Z,87.60
2019-02-18T08:00:14.240Z,87.30
2019-02-18T08:03:15.142Z,87.20
2019-02-18T08:06:16.747Z,86.70
2019-02-18T08:09:17.757Z,86.30
2019-02-18T08:12:25.687Z,86.10
2019-02-18T08:15:27.106Z,85.80
2019-02-18T08:18:28.598Z,85.00
2019-02-18T08:21:29.944Z,83.60
2019-02-18T08:24:31.898Z,82.60
2019-02-18T08:27:32.461Z,81.40
2019-02-18T08:30:34.043Z,80.50
2019-02-18T08:33:35.350Z,78.80
2019-02-18T08:36:36.534Z,76.50
2019-02-18T08:39:38.188Z,75.70
2019-02-18T08:45:46.250Z,73.60
2019-02-18T08:48:47.317Z,71.50
2019-02-18T08:51:49.109Z,70.10
2019-02-18T08:54:56.479Z,69.20
2019-02-18T08:57:56.986Z,68.10
2019-02-18T09:01:02.444Z,67.80
2019-02-18T09:04:01.107Z,65.70
2019-02-18T09:07:02.786Z,64.20
2019-02-18T09:10:04.272Z,63.10
2019-02-18T09:16:12.835Z,61.20
2019-02-18T09:19:13.970Z,59.70
2019-02-18T09:22:34.703Z,58.50
2019-02-18T09:28:53.160Z,59.20
2019-02-18T09:31:54.608Z,57.60
2019-02-18T09:41:12.679Z,57.40
2019-02-18T09:44:20.749Z,57.10
2019-02-18T09:47:21.747Z,55.90
2019-02-18T09:50:22.690Z,54.60
2019-02-18T09:53:23.690Z,53.60
2019-02-18T09:56:25.132Z,54.00
2019-02-18T09:59:25.104Z,54.30
2019-02-18T10:02:33.715Z,54.20
2019-02-18T10:05:35.739Z,53.60
2019-02-18T10:08:37.316Z,54.70
2019-02-18T10:11:38.483Z,54.90
2019-02-18T10:17:46.948Z,54.50
2019-02-18T10:20:48.746Z,56.90
2019-02-18T10:23:50.491Z,56.00
2019-02-18T10:26:57.193Z,55.50
2019-02-18T10:29:58.170Z,56.00
2019-02-18T10:32:59.016Z,53.30
2019-02-18T10:36:00.651Z,52.70
2019-02-18T10:39:02.128Z,55.60
2019-02-18T10:42:03.170Z,53.20
2019-02-18T10:48:10.911Z,51.20
2019-02-18T10:51:13.034Z,52.20
2019-02-18T10:54:14.341Z,50.50
2019-02-18T10:57:15.520Z,51.20
2019-02-18T11:00:17.456Z,47.10
2019-02-18T11:03:19.419Z,48.10
2019-02-18T11:06:20.532Z,48.80
2019-02-18T11:09:22.261Z,47.50
2019-02-18T11:12:23.544Z,45.60
2019-02-18T11:18:32.199Z,43.60
2019-02-18T11:21:33.778Z,42.70
2019-02-18T11:24:34.671Z,42.40
2019-02-18T11:27:35.642Z,40.00
2019-02-18T11:30:39.164Z,40.10
2019-02-18T11:33:40.938Z,39.80
2019-02-18T11:36:42.067Z,40.60
2019-02-18T11:39:43.980Z,39.80
2019-02-18T11:42:45.231Z,40.30
2019-02-18T11:45:35.069Z,37.70
2019-02-18T11:51:57.231Z,33.30
2019-02-18T11:54:58.313Z,31.60
2019-02-18T11:57:58.403Z,30.60
2019-02-18T12:07:34.850Z,31.10
2019-02-18T12:10:36.243Z,30.90
2019-02-18T12:13:37.939Z,30.00
2019-02-18T12:19:46.061Z,31.40
2019-02-18T12:22:47.931Z,31.00
2019-02-18T12:25:49.885Z,31.00
2019-02-18T12:28:50.865Z,31.50
2019-02-18T12:31:51.186Z,31.40
2019-02-18T12:34:52.862Z,32.30
2019-02-18T12:37:55.694Z,32.80
2019-02-18T12:40:56.914Z,32.30
2019-02-18T12:43:57.975Z,32.60
2019-02-18T12:50:05.937Z,32.70
2019-02-18T12:53:07.081Z,31.90
2019-02-18T12:56:12.210Z,31.00
2019-02-18T12:59:13.344Z,31.50
2019-02-18T13:02:15.395Z,31.60
2019-02-18T13:05:16.402Z,30.60
2019-02-18T13:08:17.487Z,30.40
2019-02-18T13:11:18.695Z,30.10
2019-02-18T13:14:20.621Z,30.40
2019-02-18T13:20:28.741Z,30.60
2019-02-18T13:23:30.353Z,30.40
2019-02-18T13:26:33.445Z,30.90
2019-02-18T13:29:34.485Z,31.10
2019-02-18T13:32:35.731Z,31.50
2019-02-18T13:35:35.634Z,32.50
2019-02-18T13:42:07.473Z,32.20
2019-02-18T13:45:08.191Z,32.40
2019-02-18T13:51:24.039Z,31.70
2019-02-18T13:54:20.585Z,31.30
2019-02-18T13:57:21.542Z,31.50
2019-02-18T14:00:23.447Z,31.30
2019-02-18T14:03:24.603Z,30.80
2019-02-18T14:06:25.711Z,30.20
2019-02-18T14:09:27.317Z,30.20
2019-02-18T14:12:30.782Z,30.20
2019-02-18T14:15:32.519Z,30.10
2019-02-18T14:21:40.989Z,30.60
2019-02-18T14:24:42.271Z,30.20
2019-02-18T14:27:44.560Z,30.30
2019-02-18T14:30:45.732Z,30.90
2019-02-18T14:33:47.935Z,30.10
2019-02-18T14:36:49.282Z,30.50
2019-02-18T14:39:50.054Z,30.90
2019-02-18T14:46:06.103Z,30.20
2019-02-18T14:49:13.466Z,30.00
2019-02-18T14:52:14.735Z,29.90
2019-02-18T14:55:19.610Z,29.90
2019-02-18T14:58:21.193Z,30.10
2019-02-18T15:01:22.647Z,30.60
2019-02-18T15:04:23.707Z,30.50
2019-02-18T15:07:25.640Z,30.80
2019-02-18T15:10:26.663Z,29.80
2019-02-18T15:13:27.938Z,30.00
2019-02-18T15:16:29.183Z,29.70
2019-02-18T15:19:36.979Z,29.00
2019-02-18T15:22:37.823Z,29.70
2019-02-18T15:25:39.062Z,29.80
2019-02-18T15:28:40.410Z,30.20
2019-02-18T15:31:42.169Z,30.60
2019-02-18T15:34:43.971Z,31.00
2019-02-18T15:37:45.847Z,31.00
2019-02-18T15:40:47.591Z,32.30
2019-02-18T15:43:48.897Z,32.20
2019-02-18T15:46:50.552Z,32.70
2019-02-18T15:49:57.982Z,31.60
2019-02-18T15:53:05.089Z,31.50
2019-02-18T15:56:12.804Z,31.40
2019-02-18T15:59:14.250Z,31.40
2019-02-18T16:02:16.066Z,31.50
2019-02-18T16:05:17.494Z,31.80
2019-02-18T16:08:19.180Z,31.80
2019-02-18T16:11:21.573Z,32.30
2019-02-18T16:14:22.657Z,32.70
2019-02-18T16:17:23.995Z,32.90
2019-02-18T16:23:32.974Z,35.10
2019-02-18T16:26:35.655Z,35.10
2019-02-18T16:29:36.942Z,35.30
2019-02-18T16:32:38.371Z,34.70
2019-02-18T16:35:39.491Z,35.10
2019-02-18T16:38:40.597Z,35.00
2019-02-18T16:41:42.056Z,35.90
2019-02-18T16:44:43.183Z,36.20
2019-02-18T16:47:44.854Z,36.80
2019-02-18T16:54:14.058Z,38.70
2019-02-18T16:57:15.921Z,39.10
2019-02-18T17:00:24.300Z,39.20
2019-02-18T17:03:26.118Z,39.60
2019-02-18T17:06:27.139Z,39.90
2019-02-18T17:09:28.847Z,40.10
2019-02-18T17:12:30.184Z,40.30
2019-02-18T17:15:31.059Z,40.90
2019-02-18T17:18:32.757Z,40.80
2019-02-18T17:24:40.411Z,41.50
2019-02-18T17:27:41.616Z,41.70
2019-02-18T17:30:42.724Z,41.80
2019-02-18T17:33:44.387Z,42.20
2019-02-18T17:36:46.385Z,42.60
2019-02-18T17:39:46.496Z,43.30
2019-02-18T17:42:55.126Z,42.90
2019-02-18T17:45:55.911Z,43.20
2019-02-18T17:48:58.138Z,43.20
2019-02-18T17:55:19.058Z,43.50
2019-02-18T17:58:20.774Z,43.80
2019-02-18T18:01:21.721Z,44.40
2019-02-18T18:04:23.860Z,45.20
2019-02-18T18:07:25.662Z,46.00
2019-02-18T18:10:26.863Z,46.40
2019-02-18T18:13:27.990Z,46.90
2019-02-18T18:16:28.920Z,47.40
2019-02-18T18:19:30.318Z,48.00
2019-02-18T18:22:20.165Z,48.40
2019-02-18T18:28:36.723Z,49.40
2019-02-18T18:31:38.161Z,49.80
2019-02-18T18:34:39.602Z,50.00
2019-02-18T18:37:40.963Z,50.40
2019-02-18T18:40:42.750Z,50.70
2019-02-18T18:43:43.597Z,50.80
2019-02-18T18:46:44.898Z,51.00
2019-02-18T18:49:46.183Z,51.40
2019-02-18T18:52:54.018Z,51.50
2019-02-18T18:55:56.144Z,51.70
2019-02-18T18:58:57.737Z,51.90
2019-02-18T19:01:59.866Z,51.90
2019-02-18T19:05:01.226Z,52.20
2019-02-18T19:08:01.795Z,52.40
2019-02-18T19:11:10.726Z,52.60
2019-02-18T19:14:12.917Z,52.80
2019-02-18T19:17:14.681Z,53.20
2019-02-18T19:20:21.139Z,53.50
2019-02-18T19:23:28.870Z,53.60
2019-02-18T19:26:37.842Z,53.90
2019-02-18T19:29:39.363Z,54.40
2019-02-18T19:32:41.123Z,54.70
2019-02-18T19:35:43.115Z,54.90
2019-02-18T19:38:44.791Z,55.10
2019-02-18T19:41:46.959Z,55.30
2019-02-18T19:44:49.319Z,55.80
2019-02-18T19:47:51.664Z,55.90
2019-02-18T19:50:53.022Z,55.90
2019-02-18T19:54:00.831Z,55.90
2019-02-18T19:57:02.839Z,56.00
2019-02-18T20:00:03.765Z,56.00
2019-02-18T20:03:06.070Z,56.60
2019-02-18T20:06:08.207Z,56.50
2019-02-18T20:09:13.735Z,56.50
2019-02-18T20:12:15.763Z,56.10
2019-02-18T20:15:17.670Z,56.60
2019-02-18T20:18:19.526Z,57.30
2019-02-18T20:21:21.441Z,56.70
2019-02-18T20:24:29.128Z,56.90
2019-02-18T20:27:29.962Z,57.00
2019-02-18T20:30:32.815Z,57.10
2019-02-18T20:33:34.735Z,57.20
2019-02-18T20:36:36.614Z,57.60
2019-02-18T20:39:37.702Z,57.90
2019-02-18T20:42:39.187Z,59.00
2019-02-18T20:45:40.415Z,58.90
2019-02-18T20:48:41.419Z,59.50
2019-02-18T20:51:47.214Z,59.60
2019-02-18T20:54:54.175Z,59.60
2019-02-18T20:57:55.615Z,60.10
2019-02-18T21:00:57.273Z,59.50
2019-02-18T21:03:58.743Z,59.30
2019-02-18T21:06:59.959Z,59.30
2019-02-18T21:10:00.974Z,59.30
2019-02-18T21:16:04.828Z,59.60
2019-02-18T21:19:13.760Z,60.00
2019-02-18T21:22:17.547Z,60.30
2019-02-18T21:25:25.480Z,60.80
2019-02-18T21:28:27.195Z,61.00
2019-02-18T21:31:29.111Z,61.30
2019-02-18T21:34:29.597Z,61.30
2019-02-18T21:37:38.723Z,61.90
2019-02-18T21:40:40.485Z,62.30
2019-02-18T21:43:40.569Z,62.30
2019-02-18T21:46:41.436Z,61.80
2019-02-18T21:49:43.118Z,61.50
2019-02-18T21:52:44.326Z,62.10
2019-02-18T21:58:52.380Z,61.70
2019-02-18T22:01:53.379Z,62.00
2019-02-18T22:04:55.151Z,62.00
2019-02-18T22:07:56.763Z,61.80
2019-02-18T22:10:58.127Z,61.40
2019-02-18T22:13:59.879Z,61.40
2019-02-18T22:17:01.642Z,61.30
2019-02-18T22:20:03.430Z,61.60
2019-02-18T22:23:05.698Z,61.70
2019-02-18T22:29:13.485Z,62.40
2019-02-18T22:32:14.473Z,62.60
2019-02-18T22:35:16.458Z,62.60
2019-02-18T22:38:18.190Z,62.60
2019-02-18T22:41:07.954Z,62.60
2019-02-18T22:44:17.094Z,62.80
2019-02-18T22:47:18.454Z,63.60
2019-02-18T22:50:20.194Z,64.10
2019-02-18T22:53:22.242Z,64.30
2019-02-18T22:59:30.420Z,64.70
2019-02-18T23:02:31.980Z,65.10
2019-02-18T23:05:33.519Z,64.40
2019-02-18T23:08:34.908Z,64.00
2019-02-18T23:11:36.122Z,63.80
2019-02-18T23:14:37.288Z,63.40
2019-02-18T23:17:38.767Z,63.60
2019-02-18T23:20:40.492Z,63.60
2019-02-18T23:23:42.127Z,63.70
2019-02-18T23:29:49.815Z,64.20
2019-02-18T23:32:51.528Z,65.10
2019-02-18T23:35:53.275Z,65.70
2019-02-18T23:38:54.706Z,65.80
2019-02-18T23:41:56.030Z,65.70
2019-02-18T23:44:45.691Z,65.90
2019-02-18T23:47:54.532Z,66.70
2019-02-18T23:50:55.839Z,67.00
2019-02-18T23:53:57.587Z,67.60
